Map

Track Data

SID SEASON NUMBER BASIN SUBBASIN NAME ISO_TIME NATURE LAT LON WMO_WIND WMO_PRES WMO_AGENCY TRACK_TYPE DIST2LAND LANDFALL IFLAG USA_AGENCY USA_ATCF_ID USA_LAT USA_LON USA_RECORD USA_STATUS USA_WIND USA_PRES USA_SSHS USA_R34_NE USA_R34_SE USA_R34_SW USA_R34_NW USA_R50_NE USA_R50_SE USA_R50_SW USA_R50_NW USA_R64_NE USA_R64_SE USA_R64_SW USA_R64_NW USA_POCI USA_ROCI USA_RMW USA_EYE TOKYO_LAT TOKYO_LON TOKYO_GRADE TOKYO_WIND TOKYO_PRES TOKYO_R50_DIR TOKYO_R50_LONG TOKYO_R50_SHORT TOKYO_R30_DIR TOKYO_R30_LONG TOKYO_R30_SHORT TOKYO_LAND CMA_LAT CMA_LON CMA_CAT CMA_WIND CMA_PRES HKO_LAT HKO_LON HKO_CAT HKO_WIND HKO_PRES NEWDELHI_LAT NEWDELHI_LON NEWDELHI_GRADE NEWDELHI_WIND NEWDELHI_PRES NEWDELHI_CI NEWDELHI_DP NEWDELHI_POCI REUNION_LAT REUNION_LON REUNION_TYPE REUNION_WIND REUNION_PRES REUNION_TNUM REUNION_CI REUNION_RMW REUNION_R34_NE REUNION_R34_SE REUNION_R34_SW REUNION_R34_NW REUNION_R50_NE REUNION_R50_SE REUNION_R50_SW REUNION_R50_NW REUNION_R64_NE REUNION_R64_SE REUNION_R64_SW REUNION_R64_NW BOM_LAT BOM_LON BOM_TYPE BOM_WIND BOM_PRES BOM_TNUM BOM_CI BOM_RMW BOM_R34_NE BOM_R34_SE BOM_R34_SW BOM_R34_NW BOM_R50_NE BOM_R50_SE BOM_R50_SW BOM_R50_NW BOM_R64_NE BOM_R64_SE BOM_R64_SW BOM_R64_NW BOM_ROCI BOM_POCI BOM_EYE BOM_POS_METHOD BOM_PRES_METHOD NADI_LAT NADI_LON NADI_CAT NADI_WIND NADI_PRES WELLINGTON_LAT WELLINGTON_LON WELLINGTON_WIND WELLINGTON_PRES DS824_LAT DS824_LON DS824_STAGE DS824_WIND DS824_PRES TD9636_LAT TD9636_LON TD9636_STAGE TD9636_WIND TD9636_PRES TD9635_LAT TD9635_LON TD9635_WIND TD9635_PRES TD9635_ROCI NEUMANN_LAT NEUMANN_LON NEUMANN_CLASS NEUMANN_WIND NEUMANN_PRES MLC_LAT MLC_LON MLC_CLASS MLC_WIND MLC_PRES USA_GUST BOM_GUST BOM_GUST_PER REUNION_GUST REUNION_GUST_PER USA_SEAHGT USA_SEARAD_NE USA_SEARAD_SE USA_SEARAD_SW USA_SEARAD_NW STORM_SPEED STORM_DIR
1983105S09228 1983 21 SP MM WILLIAM 1983-04-15 00:00:00 NR -9.00000 -132.000 30 997 wellington main 4050 4050 ________O_____ -1 -9.00000 -132.000 30 997 5 187
1983105S09228 1983 21 SP MM WILLIAM 1983-04-15 03:00:00 NR -9.25468 -132.031 main 4076 4076 ________P_____ -1 -9.25468 -132.031 30 997 5 188
1983105S09228 1983 21 SP MM WILLIAM 1983-04-15 06:00:00 NR -9.50749 -132.070 main 4087 4087 ________P_____ -1 -9.50749 -132.070 30 997 5 190
1983105S09228 1983 21 SP MM WILLIAM 1983-04-15 09:00:00 NR -9.75655 -132.124 main 4114 4114 ________P_____ -1 -9.75655 -132.124 30 997 5 164
1983105S09228 1983 21 SP MM WILLIAM 1983-04-15 12:00:00 TS -10.0000 -131.933 30 997 wellington main 4145 4145 O_______O___O_ jtwc_sh SH221983 -10.0000 -131.400 30 -1 -10.0000 -132.200 30 997 -10.0000 -131.400 TC 30 5 153
1983105S09228 1983 21 SP MM WILLIAM 1983-04-15 15:00:00 TS -10.2106 -131.892 main 4163 4163 P_______P___P_ SH221983 -10.1850 -131.480 31 -1 -10.2363 -132.303 31 996 -10.1850 -131.480 TC 30 4 179
1983105S09228 1983 21 SP MM WILLIAM 1983-04-15 18:00:00 TS -10.4260 -131.931 main 4181 4181 O_______P___O_ jtwc_sh SH221983 -10.4000 -131.600 32 -1 -10.4650 -132.427 32 996 -10.4000 -131.600 TC 30 5 198
1983105S09228 1983 21 SP MM WILLIAM 1983-04-15 21:00:00 TS -10.6671 -132.044 main 4201 4194 P_______P___P_ SH221983 -10.6575 -131.785 33 -1 -10.6863 -132.563 33 995 -10.6575 -131.785 TC 32 6 212
1983105S09228 1983 21 SP MM WILLIAM 1983-04-16 00:00:00 TS -10.9000 -132.233 35 995 wellington main 4206 4199 O_______O___O_ jtwc_sh SH221983 -10.9000 -132.000 35 0 -10.9000 -132.700 35 995 -10.9000 -132.000 TC 35 5 220
1983105S09228 1983 21 SP MM WILLIAM 1983-04-16 03:00:00 TS -11.0727 -132.394 main 4211 4204 P_______P___P_ SH221983 -11.0575 -132.185 36 0 -11.1031 -132.813 36 993 -11.0575 -132.185 TC 35 5 225
1983105S09228 1983 21 SP MM WILLIAM 1983-04-16 06:00:00 TS -11.2333 -132.576 main 4207 4207 O_______P___O_ jtwc_sh SH221983 -11.2000 -132.400 37 0 -11.2999 -132.928 37 992 -11.2000 -132.400 TC 35 6 229
1983105S09228 1983 21 SP MM WILLIAM 1983-04-16 09:00:00 TS -11.4323 -132.818 main 4212 4209 P_______P___P_ SH221983 -11.4001 -132.700 38 0 -11.4968 -133.054 38 991 -11.4001 -132.700 TC 37 6 230
1983105S09228 1983 21 SP MM WILLIAM 1983-04-16 12:00:00 TS -11.6333 -133.067 40 990 wellington main 4212 4212 O_______O___O_ jtwc_sh SH221983 -11.6000 -133.000 40 0 -11.7000 -133.200 40 990 -11.6000 -133.000 TC 40 6 230
1983105S09228 1983 21 SP MM WILLIAM 1983-04-16 15:00:00 TS -11.7982 -133.265 main 4218 4208 P_______P___P_ SH221983 -11.7424 -133.208 41 0 -11.9097 -133.378 40 990 -11.7424 -133.208 TC 40 5 228
1983105S09228 1983 21 SP MM WILLIAM 1983-04-16 18:00:00 TS -11.9758 -133.459 main 4197 4173 O_______P___O_ jtwc_sh SH221983 -11.9000 -133.400 42 0 -12.1275 -133.578 40 990 -11.9000 -133.400 TC 40 6 226
1983105S09228 1983 21 SP MM WILLIAM 1983-04-16 21:00:00 TS -12.2089 -133.706 main 4173 4147 P_______P___P_ SH221983 -12.1350 -133.665 43 0 -12.3566 -133.788 40 990 -12.1350 -133.665 TC 42 7 223
1983105S09228 1983 21 SP MM WILLIAM 1983-04-17 00:00:00 TS -12.4667 -133.933 40 990 wellington main 4147 4123 O_______O___O_ jtwc_sh SH221983 -12.4000 -133.900 45 0 -12.6000 -134.000 40 990 -12.4000 -133.900 TC 45 6 215
1983105S09228 1983 21 SP MM WILLIAM 1983-04-17 03:00:00 TS -12.7260 -134.082 main 4123 4109 P_______P___P_ SH221983 -12.6424 -134.015 45 0 -12.8931 -134.216 40 990 -12.6424 -134.015 TC 45 6 207
1983105S09228 1983 21 SP MM WILLIAM 1983-04-17 06:00:00 TS -12.9983 -134.210 main 4109 4084 O_______P___O_ jtwc_sh SH221983 -12.9000 -134.100 45 0 -13.1950 -134.430 40 990 -12.9000 -134.100 TC 45 6 207
1983105S09228 1983 21 SP MM WILLIAM 1983-04-17 09:00:00 TS -13.3015 -134.381 main 4084 4070 P_______P___P_ SH221983 -13.2150 -134.257 45 0 -13.4744 -134.629 40 990 -13.2150 -134.257 TC 45 7 209
1983105S09228 1983 21 SP MM WILLIAM 1983-04-17 12:00:00 TS -13.5667 -134.533 40 990 wellington main 4070 4059 O_______O___O_ jtwc_sh SH221983 -13.5000 -134.400 45 0 -13.7000 -134.800 40 990 -13.5000 -134.400 TC 45 5 207
1983105S09228 1983 21 SP MM WILLIAM 1983-04-17 15:00:00 TS -13.7140 -134.602 main 4059 4047 P_______P___P_ SH221983 -13.6650 -134.450 45 0 -13.8120 -134.905 41 989 -13.6650 -134.450 TC 45 3 206
1983105S09228 1983 21 SP MM WILLIAM 1983-04-17 18:00:00 TS -13.8241 -134.662 main 4047 4034 O_______P___O_ jtwc_sh SH221983 -13.8000 -134.500 46 0 -13.8722 -134.986 42 988 -13.8000 -134.500 TC 45 3 213
1983105S09228 1983 21 SP MM WILLIAM 1983-04-17 21:00:00 TS -13.9688 -134.776 main 4034 4023 P_______P___P_ SH221983 -13.9925 -134.628 48 0 -13.9213 -135.074 43 987 -13.9925 -134.628 TC 47 4 220
1983105S09228 1983 21 SP MM WILLIAM 1983-04-18 00:00:00 TS -14.1333 -134.933 45 987 wellington main 4023 4000 O_______O___O_ jtwc_sh SH221983 -14.2000 -134.800 50 0 -14.0000 -135.200 45 987 -14.2000 -134.800 TC 50 5 222
1983105S09228 1983 21 SP MM WILLIAM 1983-04-18 03:00:00 TS -14.3176 -135.105 main 4000 3977 P_______P___P_ SH221983 -14.3924 -134.963 52 0 -14.1681 -135.391 46 986 -14.3924 -134.963 TC 52 6 225
1983105S09228 1983 21 SP MM WILLIAM 1983-04-18 06:00:00 TS -14.5233 -135.342 main 3977 3932 O_______P___O_ jtwc_sh SH221983 -14.6000 -135.200 55 0 -14.3699 -135.625 47 986 -14.6000 -135.200 TC 55 7 231
1983105S09228 1983 21 SP MM WILLIAM 1983-04-18 09:00:00 TS -14.7623 -135.679 main 3932 3898 P_______P___P_ SH221983 -14.8501 -135.570 57 0 -14.5868 -135.897 48 985 -14.8501 -135.570 TC 57 9 236
1983105S09228 1983 21 SP MM WILLIAM 1983-04-18 12:00:00 TS -15.0000 -136.067 50 985 wellington main 3888 3854 O_______O___O_ jtwc_sh SH221983 -15.1000 -136.000 60 0 -14.8000 -136.200 50 985 -15.1000 -136.000 TC 60 9 239
1983105S09228 1983 21 SP MM WILLIAM 1983-04-18 15:00:00 TS -15.1949 -136.436 main 3854 3811 P_______P___P_ SH221983 -15.3074 -136.393 61 0 -14.9700 -136.522 52 982 -15.3074 -136.393 TC 60 8 243
1983105S09228 1983 21 SP MM WILLIAM 1983-04-18 18:00:00 TS -15.3783 -136.823 main 3811 3767 O_______P___O_ jtwc_sh SH221983 -15.5000 -136.800 62 0 -15.1350 -136.870 55 980 -15.5000 -136.800 TC 60 9 244
1983105S09228 1983 21 SP MM WILLIAM 1983-04-18 21:00:00 TS -15.5842 -137.250 main 3767 3724 P_______P___P_ SH221983 -15.7225 -137.257 63 0 -15.3075 -137.234 57 977 -15.7225 -137.257 TC 62 9 244
1983105S09228 1983 21 SP MM WILLIAM 1983-04-19 00:00:00 TS -15.7667 -137.667 60 975 wellington main 3713 3681 O_______O___O_ jtwc_sh SH221983 -15.9000 -137.700 65 1 -15.5000 -137.600 60 975 -15.9000 -137.700 TC 65 8 248
1983105S09228 1983 21 SP MM WILLIAM 1983-04-19 03:00:00 TS -15.8874 -138.035 main 3681 3638 P_______P___P_ SH221983 -15.9649 -138.065 66 1 -15.7326 -137.974 62 972 -15.9649 -138.065 TC 65 7 252
1983105S09228 1983 21 SP MM WILLIAM 1983-04-19 06:00:00 TS -15.9950 -138.382 main 3638 3605 O_______P___O_ jtwc_sh SH221983 -16.0000 -138.400 67 1 -15.9851 -138.345 65 970 -16.0000 -138.400 TC 65 7 250
1983105S09228 1983 21 SP MM WILLIAM 1983-04-19 09:00:00 TS -16.1284 -138.741 main 3605 3573 P_______P___P_ SH221983 -16.0700 -138.765 68 1 -16.2451 -138.693 67 967 -16.0700 -138.765 TC 67 7 245
1983105S09228 1983 21 SP MM WILLIAM 1983-04-19 12:00:00 TS -16.3000 -139.067 70 965 wellington main 3563 3541 O_______O___O_ jtwc_sh SH221983 -16.2000 -139.100 70 1 -16.5000 -139.000 70 965 -16.2000 -139.100 TC 70 7 235
1983105S09228 1983 21 SP MM WILLIAM 1983-04-19 15:00:00 TS -16.5290 -139.347 main 3541 3510 P_______P___P_ SH221983 -16.4275 -139.380 71 1 -16.7320 -139.280 72 962 -16.4275 -139.380 TC 70 7 225
1983105S09228 1983 21 SP MM WILLIAM 1983-04-19 18:00:00 TS -16.7858 -139.571 main 3510 3499 O_______P___O_ jtwc_sh SH221983 -16.7000 -139.600 72 1 -16.9573 -139.513 75 960 -16.7000 -139.600 TC 70 6 218
1983105S09228 1983 21 SP MM WILLIAM 1983-04-19 21:00:00 TS -17.0313 -139.755 main 3489 3479 P_______P___P_ SH221983 -16.9575 -139.788 73 1 -17.1789 -139.689 77 957 -16.9575 -139.788 TC 72 6 211
1983105S09228 1983 21 SP MM WILLIAM 1983-04-20 00:00:00 TS -17.2667 -139.867 80 955 wellington main 3479 3479 O_______O___O_ jtwc_sh SH221983 -17.2000 -139.900 75 1 -17.4000 -139.800 80 955 -17.2000 -139.900 TC 75 5 201
1983105S09228 1983 21 SP MM WILLIAM 1983-04-20 03:00:00 TS -17.4617 -139.930 main 3480 3480 P_______P___P_ SH221983 -17.3925 -139.945 75 1 -17.6002 -139.900 80 955 -17.3925 -139.945 TC 77 4 186
1983105S09228 1983 21 SP MM WILLIAM 1983-04-20 06:00:00 TS -17.6681 -139.910 main 3481 3481 O_______P___O_ jtwc_sh SH221983 -17.6000 -139.900 76 1 -17.8043 -139.929 80 955 -17.6000 -139.900 TC 80 5 168
1983105S09228 1983 21 SP MM WILLIAM 1983-04-20 09:00:00 TS -17.9337 -139.819 main 3492 3492 P_______P___P_ SH221983 -17.8850 -139.795 75 1 -18.0313 -139.868 80 955 -17.8850 -139.795 TC 80 6 155
1983105S09228 1983 21 SP MM WILLIAM 1983-04-20 12:00:00 TS -18.2333 -139.633 80 955 wellington main 3515 3515 O_______O___O_ jtwc_sh SH221983 -18.2000 -139.600 75 1 -18.3000 -139.700 80 955 -18.2000 -139.600 TC 80 967 7 145
1983105S09228 1983 21 SP MM WILLIAM 1983-04-20 15:00:00 TS -18.5430 -139.368 main 3538 3538 P_______P___P_ SH221983 -18.4925 -139.330 73 1 -18.6439 -139.445 80 955 -18.4925 -139.330 TC 80 9 138
1983105S09228 1983 21 SP MM WILLIAM 1983-04-20 18:00:00 TS -18.8757 -139.027 main 3583 3583 O_______P___O_ jtwc_sh SH221983 -18.8000 -139.000 72 1 -19.0271 -139.080 80 955 -18.8000 -139.000 TC 80 10 136
1983105S09228 1983 21 SP MM WILLIAM 1983-04-20 21:00:00 TS -19.2405 -138.662 main 3617 3617 P_______P___P_ SH221983 -19.1498 -138.680 71 1 -19.4217 -138.626 80 955 -19.1498 -138.680 TC 75 10 134
1983105S09228 1983 21 SP MM WILLIAM 1983-04-21 00:00:00 TS -19.6000 -138.233 80 955 wellington main 3673 3673 O_______O___O_ jtwc_sh SH221983 -19.5000 -138.300 70 1 -19.8000 -138.100 80 955 -19.5000 -138.300 TC 70 11 128
1983105S09228 1983 21 SP MM WILLIAM 1983-04-21 03:00:00 TS -19.9095 -137.753 main 3717 3717 P_______P___P_ SH221983 -19.7999 -137.837 68 1 -20.1287 -137.583 77 957 -19.7999 -137.837 TC 67 12 122
1983105S09228 1983 21 SP MM WILLIAM 1983-04-21 06:00:00 TS -20.2119 -137.200 main 3783 3783 O_______P___O_ jtwc_sh SH221983 -20.1000 -137.300 67 1 -20.4358 -136.999 75 960 -20.1000 -137.300 TC 65 13 120
1983105S09228 1983 21 SP MM WILLIAM 1983-04-21 09:00:00 TS -20.5465 -136.600 main 3848 3848 P_______P___P_ SH221983 -20.4573 -136.730 66 1 -20.7250 -136.339 72 962 -20.4573 -136.730 TC 65 14 119
1983105S09228 1983 21 SP MM WILLIAM 1983-04-21 12:00:00 TS -20.8667 -135.933 70 965 wellington main 3925 3925 O_______O___O_ jtwc_sh SH221983 -20.8000 -136.100 65 1 -21.0000 -135.600 70 965 -20.8000 -136.100 TC 65 14 114
1983105S09228 1983 21 SP MM WILLIAM 1983-04-21 15:00:00 TS -21.1261 -135.223 main 4000 4000 P_______P___P_ SH221983 -21.0571 -135.437 63 0 -21.2642 -134.794 66 968 -21.0571 -135.437 TC 62 15 110
1983105S09228 1983 21 SP MM WILLIAM 1983-04-21 18:00:00 TS -21.3715 -134.437 main 4085 4085 O_______P___O_ jtwc_sh SH221983 -21.3000 -134.700 62 0 -21.5144 -133.911 62 972 -21.3000 -134.700 TC 60 16 110
1983105S09228 1983 21 SP MM WILLIAM 1983-04-21 21:00:00 TS -21.6770 -133.598 main 4171 4171 P_______P___P_ SH221983 -21.6367 -133.911 61 0 -21.7574 -132.972 58 976 -21.6367 -133.911 TC 60 17 109
1983105S09228 1983 21 SP MM WILLIAM 1983-04-22 00:00:00 TS -21.9333 -132.667 55 980 wellington main 4265 4265 O_______O___O_ jtwc_sh SH221983 -21.9000 -133.000 60 0 -22.0000 -132.000 55 980 -21.9000 -133.000 TC 60 19 101
1983105S09228 1983 21 SP MM WILLIAM 1983-04-22 03:00:00 TS -22.0273 -131.641 main 4379 4379 P_______P___P_ SH221983 -21.9376 -131.929 57 0 -22.2066 -131.065 51 982 -21.9376 -131.929 TC 57 20 94
1983105S09228 1983 21 SP MM WILLIAM 1983-04-22 06:00:00 TS -22.0736 -130.566 main 4483 4483 O_______P___O_ jtwc_sh SH221983 -21.9000 -130.800 55 0 -22.4208 -130.098 47 985 -21.9000 -130.800 TC 55 20 94
1983105S09228 1983 21 SP MM WILLIAM 1983-04-22 09:00:00 TS -22.1659 -129.527 main 4597 4597 P_______P___P_ SH221983 -21.9116 -129.749 52 0 -22.6746 -129.083 43 987 -21.9116 -129.749 TC 52 20 98
1983105S09228 1983 21 SP MM WILLIAM 1983-04-22 12:00:00 TS -22.3333 -128.467 40 990 wellington main 4664 4578 O_______O___O_ jtwc_sh SH221983 -22.0000 -128.700 50 0 -23.0000 -128.000 40 990 -22.0000 -128.700 TC 50 21 102
1983105S09228 1983 21 SP MM WILLIAM 1983-04-22 15:00:00 TS -22.5940 -127.350 main 4578 4494 P_______P___P_ SH221983 -22.1819 -127.607 46 0 -23.4183 -126.837 37 991 -22.1819 -127.607 TC 47 22 107
1983105S09228 1983 21 SP MM WILLIAM 1983-04-22 18:00:00 TS -22.9701 -126.201 main 4490 4414 O_______P___O_ jtwc_sh SH221983 -22.5000 -126.500 43 0 -23.9104 -125.603 35 993 -22.5000 -126.500 TC 45 23 112
1983105S09228 1983 21 SP MM WILLIAM 1983-04-22 21:00:00 TS -23.4567 -125.039 main 4410 4343 P_______P___P_ SH221983 -22.9614 -125.400 38 0 -24.4472 -124.318 32 995 -22.9614 -125.400 TC 40 24 116
1983105S09228 1983 21 SP MM WILLIAM 1983-04-23 00:00:00 TS -24.0000 -123.867 30 997 wellington main 4343 O_______O___O_ jtwc_sh SH221983 -23.5000 -124.300 34 0 -25.0000 -123.000 30 997 -23.5000 -124.300 TC 35 24 117

Digital Typhoon Data and Search

About IBTrACS Database

This database is a web-friendly format of International Best Track Archive for Climate Stewardship (IBTrACS), a global best track data archive curated by NOAA dating back to 1842.

Updated: 2021-11-26